Time;durP1;ratioP1;P1;durP2;ratioP2;P2;SDS_P1;SDS_P2;PMS_P1;PMS_P2;Temp;Humidity;BMP_temperature;BMP_pressure;BME280_temperature;BME280_humidity;BME280_pressure;Samples;Min_cycle;Max_cycle;Signal;HPM_P1;HPM_P2
2023/07/17 00:03:47;;;;;;;1999.90;999.90;;;;;;;;;;6600534;89;20205;-77
2023/07/17 00:13:48;;;;;;;1999.90;999.90;;;;;;;;;;6607859;89;20292;-76
2023/07/17 00:23:49;;;;;;;1999.90;999.90;;;;;;;;;;6604071;89;20192;-78
2023/07/17 00:33:50;;;;;;;1999.90;999.90;;;;;;;;;;6608616;88;20648;-77
2023/07/17 00:43:51;;;;;;;1999.90;999.90;;;;;;;;;;6600451;89;20186;-77
2023/07/17 00:53:52;;;;;;;1999.90;999.90;;;;;;;;;;6599683;90;20216;-77
2023/07/17 01:14:56;;;;;;;1999.90;999.90;;;;;;;;;;6712944;88;20663;-80
2023/07/17 01:24:57;;;;;;;1999.90;999.90;;;;;;;;;;6737634;88;20182;-79
2023/07/17 01:34:58;;;;;;;1999.90;999.90;;;;;;;;;;6728576;88;20202;-81
2023/07/17 01:44:59;;;;;;;1999.90;999.90;;;;;;;;;;6735257;88;20323;-80
2023/07/17 01:55:00;;;;;;;1999.90;999.90;;;;;;;;;;6725928;88;20579;-80
2023/07/17 02:05:02;;;;;;;1999.90;999.90;;;;;;;;;;6725044;88;20665;-79
2023/07/17 02:15:03;;;;;;;1999.90;999.90;;;;;;;;;;6725158;88;20239;-79
2023/07/17 02:25:07;;;;;;;1999.90;999.90;;;;;;;;;;6725368;88;20206;-79
2023/07/17 02:35:08;;;;;;;1999.90;999.90;;;;;;;;;;6725659;88;20708;-79
2023/07/17 02:45:10;;;;;;;1999.90;999.90;;;;;;;;;;6726356;88;20206;-79
2023/07/17 02:55:10;;;;;;;1999.90;999.90;;;;;;;;;;6725235;88;20663;-79
2023/07/17 03:05:12;;;;;;;1999.90;999.90;;;;;;;;;;6727369;88;20277;-79
2023/07/17 03:15:13;;;;;;;1999.90;999.90;;;;;;;;;;6728281;88;20218;-80
2023/07/17 03:25:14;;;;;;;1999.90;999.90;;;;;;;;;;6727130;88;20214;-80
2023/07/17 03:35:15;;;;;;;1999.90;999.90;;;;;;;;;;6727383;88;20251;-80
2023/07/17 03:45:16;;;;;;;1999.90;999.90;;;;;;;;;;6730536;88;20180;-80
2023/07/17 03:55:17;;;;;;;1999.90;999.90;;;;;;;;;;6711879;88;20194;-80
2023/07/17 04:05:18;;;;;;;1999.90;999.90;;;;;;;;;;6710717;88;20280;-80
2023/07/17 04:15:19;;;;;;;1999.90;999.90;;;;;;;;;;6710459;88;20194;-80
2023/07/17 04:25:20;;;;;;;1999.90;999.90;;;;;;;;;;6710835;88;20214;-80
2023/07/17 04:35:21;;;;;;;1999.90;999.90;;;;;;;;;;6717921;88;20211;-80
2023/07/17 04:45:22;;;;;;;1999.90;999.90;;;;;;;;;;6710379;88;20700;-79
2023/07/17 04:55:24;;;;;;;1999.90;999.90;;;;;;;;;;6710538;88;20193;-80
2023/07/17 05:05:25;;;;;;;1999.90;999.90;;;;;;;;;;6712013;88;20276;-80
2023/07/17 05:15:26;;;;;;;1999.90;999.90;;;;;;;;;;6723228;88;20205;-80
2023/07/17 05:25:27;;;;;;;1999.90;999.90;;;;;;;;;;6713465;88;20329;-79
2023/07/17 05:35:28;;;;;;;1999.90;999.90;;;;;;;;;;6711164;88;20198;-80
2023/07/17 05:45:29;;;;;;;1999.90;999.90;;;;;;;;;;6716294;88;20181;-81
2023/07/17 05:55:30;;;;;;;1999.90;999.90;;;;;;;;;;6719814;88;20219;-80
2023/07/17 06:05:31;;;;;;;1999.90;999.90;;;;;;;;;;6713652;88;20197;-80
2023/07/17 06:15:32;;;;;;;1999.90;999.90;;;;;;;;;;6715595;88;20251;-81
2023/07/17 06:25:34;;;;;;;1999.90;999.90;;;;;;;;;;6727486;88;20190;-81
2023/07/17 06:35:35;;;;;;;1999.90;999.90;;;;;;;;;;6732588;88;20198;-81
2023/07/17 06:45:36;;;;;;;1999.90;999.90;;;;;;;;;;6734572;88;20185;-81
2023/07/17 06:55:37;;;;;;;1999.90;999.90;;;;;;;;;;6738719;88;20169;-81
2023/07/17 07:05:37;;;;;;;1999.90;999.90;;;;;;;;;;6733493;88;20223;-81
2023/07/17 07:15:38;;;;;;;1999.90;999.90;;;;;;;;;;6730752;88;20692;-82
2023/07/17 07:25:39;;;;;;;1999.90;999.90;;;;;;;;;;6728254;88;20212;-80
2023/07/17 07:35:44;;;;;;;1999.90;999.90;;;;;;;;;;6730441;88;20202;-82
2023/07/17 07:45:45;;;;;;;1999.90;999.90;;;;;;;;;;6730554;88;20188;-80
2023/07/17 07:55:46;;;;;;;1999.90;999.90;;;;;;;;;;6731337;88;20197;-82
2023/07/17 08:05:47;;;;;;;1999.90;999.90;;;;;;;;;;6736366;88;20241;-82
2023/07/17 08:15:49;;;;;;;1999.90;999.90;;;;;;;;;;6736627;88;20705;-81
2023/07/17 08:25:50;;;;;;;1999.90;999.90;;;;;;;;;;6736857;88;20276;-82
2023/07/17 08:35:51;;;;;;;1999.90;999.90;;;;;;;;;;6743793;88;20622;-82
2023/07/17 08:45:52;;;;;;;1999.90;999.90;;;;;;;;;;6739923;88;20251;-80
2023/07/17 08:55:54;;;;;;;1999.90;999.90;;;;;;;;;;6745226;88;20165;-79
2023/07/17 09:05:55;;;;;;;1999.90;999.90;;;;;;;;;;6750313;88;20185;-79
2023/07/17 09:16:11;;;;;;;1999.90;999.90;;;;;;;;;;6750531;88;20177;-78
2023/07/17 09:26:15;;;;;;;1999.90;999.90;;;;;;;;;;6744082;88;20214;-79
2023/07/17 09:36:16;;;;;;;1999.90;999.90;;;;;;;;;;6742487;88;20655;-81
2023/07/17 09:46:17;;;;;;;1999.90;999.90;;;;;;;;;;6726502;88;20183;-79
2023/07/17 09:56:19;;;;;;;1999.90;999.90;;;;;;;;;;6740883;88;20243;-79
2023/07/17 10:06:21;;;;;;;1999.90;999.90;;;;;;;;;;6743281;88;20623;-80
2023/07/17 10:16:22;;;;;;;1999.90;999.90;;;;;;;;;;6746537;88;20211;-80
2023/07/17 10:26:23;;;;;;;1999.90;999.90;;;;;;;;;;6739934;88;20647;-80
2023/07/17 10:36:40;;;;;;;1999.90;999.90;;;;;;;;;;6745195;88;20210;-80
2023/07/17 10:46:41;;;;;;;1999.90;999.90;;;;;;;;;;6745468;88;20192;-79
2023/07/17 10:56:46;;;;;;;1999.90;999.90;;;;;;;;;;6734074;88;20244;-80
2023/07/17 11:06:47;;;;;;;1999.90;999.90;;;;;;;;;;6736642;88;20295;-81
2023/07/17 11:16:48;;;;;;;1999.90;999.90;;;;;;;;;;6742413;88;20204;-81
2023/07/17 11:26:49;;;;;;;1999.90;999.90;;;;;;;;;;6729944;88;20842;-79
2023/07/17 11:36:50;;;;;;;1999.90;999.90;;;;;;;;;;6734882;88;20377;-80
2023/07/17 11:46:52;;;;;;;1999.90;999.90;;;;;;;;;;6730177;88;20670;-80
2023/07/17 11:56:59;;;;;;;1999.90;999.90;;;;;;;;;;6727658;88;20221;-79
2023/07/17 12:07:01;;;;;;;1999.90;999.90;;;;;;;;;;6730503;88;20194;-80
2023/07/17 12:17:03;;;;;;;1999.90;999.90;;;;;;;;;;6723221;88;20197;-80
2023/07/17 12:27:04;;;;;;;1999.90;999.90;;;;;;;;;;6742035;88;20195;-80
2023/07/17 12:37:05;;;;;;;1999.90;999.90;;;;;;;;;;6742805;88;20220;-80
2023/07/17 12:47:06;;;;;;;1999.90;999.90;;;;;;;;;;6741527;88;20727;-79
2023/07/17 12:57:07;;;;;;;1999.90;999.90;;;;;;;;;;6737832;88;20186;-79
2023/07/17 13:07:09;;;;;;;1999.90;999.90;;;;;;;;;;6743410;77;20198;-76
2023/07/17 13:17:10;;;;;;;1999.90;999.90;;;;;;;;;;6730663;88;20204;-76
2023/07/17 13:27:11;;;;;;;1999.90;999.90;;;;;;;;;;6729439;88;20826;-78
2023/07/17 13:37:12;;;;;;;1999.90;999.90;;;;;;;;;;6730702;88;20225;-78
2023/07/17 13:47:13;;;;;;;1999.90;999.90;;;;;;;;;;6734965;88;20185;-78
2023/07/17 13:57:14;;;;;;;1999.90;999.90;;;;;;;;;;6725195;88;20759;-77
2023/07/17 14:07:15;;;;;;;1999.90;999.90;;;;;;;;;;6723641;88;20210;-78
2023/07/17 14:17:16;;;;;;;1999.90;999.90;;;;;;;;;;6720457;88;20646;-78
2023/07/17 14:27:17;;;;;;;1999.90;999.90;;;;;;;;;;6722701;88;20248;-78
2023/07/17 14:37:18;;;;;;;1999.90;999.90;;;;;;;;;;6726817;88;20185;-78
2023/07/17 14:47:19;;;;;;;1999.90;999.90;;;;;;;;;;6726760;88;20237;-78
2023/07/17 14:57:20;;;;;;;1999.90;999.90;;;;;;;;;;6728251;88;20193;-78
2023/07/17 15:07:21;;;;;;;1999.90;999.90;;;;;;;;;;6721204;88;20215;-79
2023/07/17 15:17:22;;;;;;;1999.90;999.90;;;;;;;;;;6726304;88;20253;-78
2023/07/17 15:27:23;;;;;;;1999.90;999.90;;;;;;;;;;6725678;88;20221;-77
2023/07/17 15:37:23;;;;;;;1999.90;999.90;;;;;;;;;;6732310;88;20221;-78
2023/07/17 15:47:24;;;;;;;1999.90;999.90;;;;;;;;;;6734812;88;20278;-78
2023/07/17 15:57:25;;;;;;;1999.90;999.90;;;;;;;;;;6723405;88;20321;-78
2023/07/17 16:07:26;;;;;;;1999.90;999.90;;;;;;;;;;6727137;88;20331;-78
2023/07/17 16:17:28;;;;;;;1999.90;999.90;;;;;;;;;;6722553;88;20186;-78
2023/07/17 16:27:29;;;;;;;1999.90;999.90;;;;;;;;;;6727970;88;20597;-77
2023/07/17 16:37:30;;;;;;;1999.90;999.90;;;;;;;;;;6725239;88;20218;-78
2023/07/17 16:47:31;;;;;;;1999.90;999.90;;;;;;;;;;6744885;88;20827;-79
2023/07/17 16:57:32;;;;;;;1999.90;999.90;;;;;;;;;;6725053;88;20299;-77
2023/07/17 17:07:33;;;;;;;1999.90;999.90;;;;;;;;;;6728903;88;20605;-77
2023/07/17 17:17:34;;;;;;;1999.90;999.90;;;;;;;;;;6725538;88;20251;-77
2023/07/17 17:27:35;;;;;;;1999.90;999.90;;;;;;;;;;6727746;88;20239;-77
2023/07/17 17:37:36;;;;;;;1999.90;999.90;;;;;;;;;;6721195;88;20189;-78
2023/07/17 17:47:37;;;;;;;1999.90;999.90;;;;;;;;;;6722576;88;20290;-78
2023/07/17 17:57:38;;;;;;;1999.90;999.90;;;;;;;;;;6722742;88;20243;-77
2023/07/17 18:07:39;;;;;;;1999.90;999.90;;;;;;;;;;6720712;88;20250;-78
2023/07/17 18:17:40;;;;;;;1999.90;999.90;;;;;;;;;;6728057;88;20196;-78
2023/07/17 18:27:41;;;;;;;1999.90;999.90;;;;;;;;;;6729860;88;20190;-78
2023/07/17 18:37:42;;;;;;;1999.90;999.90;;;;;;;;;;6718763;88;20740;-77
2023/07/17 18:47:43;;;;;;;1999.90;999.90;;;;;;;;;;6721380;88;20313;-76
2023/07/17 18:57:44;;;;;;;1999.90;999.90;;;;;;;;;;6722960;88;20237;-77
2023/07/17 19:08:05;;;;;;;1999.90;999.90;;;;;;;;;;6728269;77;20219;-80
2023/07/17 19:18:08;;;;;;;1999.90;999.90;;;;;;;;;;6699368;88;20182;-80
2023/07/17 19:28:09;;;;;;;1999.90;999.90;;;;;;;;;;6693493;88;20193;-80
2023/07/17 19:38:10;;;;;;;1999.90;999.90;;;;;;;;;;6682392;88;20359;-80
2023/07/17 19:48:12;;;;;;;1999.90;999.90;;;;;;;;;;6685210;89;20172;-80
2023/07/17 19:58:14;;;;;;;1999.90;999.90;;;;;;;;;;6681907;89;20217;-80
2023/07/17 20:08:15;;;;;;;1999.90;999.90;;;;;;;;;;6680741;88;20643;-79
2023/07/17 20:18:16;;;;;;;1999.90;999.90;;;;;;;;;;6677185;88;20320;-80
2023/07/17 20:28:17;;;;;;;1999.90;999.90;;;;;;;;;;6689460;88;20209;-80
2023/07/17 20:38:19;;;;;;;1999.90;999.90;;;;;;;;;;6682474;89;20191;-79
2023/07/17 20:48:20;;;;;;;1999.90;999.90;;;;;;;;;;6683557;88;20236;-78
2023/07/17 20:58:21;;;;;;;1999.90;999.90;;;;;;;;;;6679802;88;20188;-77
2023/07/17 21:08:25;;;;;;;1999.90;999.90;;;;;;;;;;6679597;88;20264;-77
2023/07/17 21:18:26;;;;;;;1999.90;999.90;;;;;;;;;;6682696;88;20249;-78
2023/07/17 21:28:30;;;;;;;1999.90;999.90;;;;;;;;;;6681696;88;20184;-77
2023/07/17 21:38:31;;;;;;;1999.90;999.90;;;;;;;;;;6678124;88;20206;-78
2023/07/17 21:48:32;;;;;;;1999.90;999.90;;;;;;;;;;6675563;89;20219;-77
2023/07/17 21:58:33;;;;;;;1999.90;999.90;;;;;;;;;;6676561;88;20323;-78
2023/07/17 22:08:34;;;;;;;1999.90;999.90;;;;;;;;;;6672162;88;20195;-78
2023/07/17 22:18:35;;;;;;;1999.90;999.90;;;;;;;;;;6667932;89;20282;-79
2023/07/17 22:28:37;;;;;;;1999.90;999.90;;;;;;;;;;6668338;89;20687;-77
2023/07/17 22:38:38;;;;;;;1999.90;999.90;;;;;;;;;;6668031;89;20701;-78
2023/07/17 22:48:39;;;;;;;1999.90;999.90;;;;;;;;;;6678875;89;20209;-79
2023/07/17 22:58:40;;;;;;;1999.90;999.90;;;;;;;;;;6675564;89;20299;-79
2023/07/17 23:08:41;;;;;;;1999.90;999.90;;;;;;;;;;6673223;88;20220;-79
2023/07/17 23:18:42;;;;;;;1999.90;999.90;;;;;;;;;;6673396;89;20195;-79
2023/07/17 23:28:45;;;;;;;1999.90;999.90;;;;;;;;;;6668158;89;20270;-78
2023/07/17 23:38:46;;;;;;;1999.90;999.90;;;;;;;;;;6673910;89;20203;-79
2023/07/17 23:48:47;;;;;;;1999.90;999.90;;;;;;;;;;6669186;89;20199;-78
2023/07/17 23:58:48;;;;;;;1999.90;999.90;;;;;;;;;;6667359;89;20207;-77
